Time;durP1;ratioP1;P1;durP2;ratioP2;P2;SDS_P1;SDS_P2;PMS_P1;PMS_P2;Temp;Humidity;BMP_temperature;BMP_pressure;BME280_temperature;BME280_humidity;BME280_pressure;Samples;Min_cycle;Max_cycle;Signal;HPM_P1;HPM_P2
2024/03/31 00:00:26;;;;;;;25.35;10.35;;;;;;;9.90;100.00;98750.59;5102730;27;20070;-73
2024/03/31 00:02:55;;;;;;;33.15;10.90;;;;;;;9.91;100.00;98747.00;5108506;27;20118;-74
2024/03/31 00:05:21;;;;;;;30.95;10.90;;;;;;;9.58;100.00;98693.84;5067784;27;20126;-74
2024/03/31 00:07:49;;;;;;;26.60;10.40;;;;;;;9.93;100.00;98745.06;5114629;27;20531;-75
2024/03/31 00:10:16;;;;;;;40.30;11.85;;;;;;;9.91;100.00;98749.63;5096974;27;20074;-74
2024/03/31 00:12:44;;;;;;;24.30;10.65;;;;;;;9.50;100.00;98691.72;5073686;27;20055;-74
2024/03/31 00:15:10;;;;;;;26.65;9.77;;;;;;;9.90;100.00;98761.16;5113678;27;20067;-75
2024/03/31 00:17:37;;;;;;;30.20;11.13;;;;;;;9.89;100.00;98779.78;5087254;28;20032;-74
2024/03/31 00:20:05;;;;;;;28.15;10.52;;;;;;;9.62;100.00;98738.44;5108298;27;20084;-75
2024/03/31 00:22:33;;;;;;;30.85;11.15;;;;;;;9.86;100.00;98788.75;5102669;28;20530;-74
2024/03/31 00:24:59;;;;;;;28.60;10.95;;;;;;;9.68;100.00;98753.03;5085305;27;20067;-74
2024/03/31 00:27:27;;;;;;;34.83;11.25;;;;;;;9.92;100.00;98806.81;5098140;27;20066;-74
2024/03/31 00:29:52;;;;;;;31.15;10.23;;;;;;;9.89;100.00;98817.63;5081626;27;20039;-74
2024/03/31 00:32:19;;;;;;;24.73;10.48;;;;;;;9.80;100.00;98816.44;5093728;27;20104;-76
2024/03/31 00:34:45;;;;;;;26.75;10.13;;;;;;;9.81;100.00;98819.94;5097161;27;20088;-74
2024/03/31 00:37:14;;;;;;;27.92;11.23;;;;;;;9.79;100.00;98827.13;5091098;27;20389;-74
2024/03/31 00:39:42;;;;;;;37.33;11.52;;;;;;;9.58;100.00;98787.19;5096905;27;20035;-75
2024/03/31 00:42:10;;;;;;;28.63;11.23;;;;;;;9.75;100.00;98820.38;5095595;27;20071;-75
2024/03/31 00:44:36;;;;;;;27.50;10.90;;;;;;;9.73;100.00;98820.50;5095897;27;20043;-75
2024/03/31 00:47:02;;;;;;;31.98;11.85;;;;;;;9.66;100.00;98815.72;5097423;27;20405;-75
2024/03/31 00:49:29;;;;;;;26.58;10.75;;;;;;;9.70;100.00;98807.47;5053184;27;20042;-76
2024/03/31 00:51:56;;;;;;;28.40;10.80;;;;;;;9.02;100.00;98682.72;5103573;27;20412;-74
2024/03/31 00:54:24;;;;;;;25.70;10.48;;;;;;;9.70;100.00;98790.78;5077949;27;20688;-77
2024/03/31 00:56:51;;;;;;;29.33;10.98;;;;;;;9.71;100.00;98787.19;5097404;27;20076;-74
2024/03/31 00:59:17;;;;;;;28.88;11.48;;;;;;;9.71;100.00;98781.88;5079069;27;20074;-75
2024/03/31 01:01:43;;;;;;;30.25;11.75;;;;;;;9.70;100.00;98774.91;5088333;27;20114;-76
2024/03/31 01:04:09;;;;;;;27.58;11.27;;;;;;;9.69;100.00;98774.06;5076522;27;20039;-74
2024/03/31 01:06:36;;;;;;;28.20;11.65;;;;;;;9.08;100.00;98682.31;5111708;27;20500;-74
2024/03/31 01:09:03;;;;;;;28.02;11.20;;;;;;;8.38;100.00;98571.78;5106519;27;20085;-74
2024/03/31 01:11:59;;;;;;;32.38;11.90;;;;;;;9.62;100.00;98782.50;5114112;27;20047;-75
2024/03/31 01:14:25;;;;;;;32.45;11.30;;;;;;;9.61;100.00;98786.09;5091710;27;20074;-75
2024/03/31 01:16:52;;;;;;;31.55;11.45;;;;;;;9.60;100.00;98797.66;5072204;27;20035;-74
2024/03/31 01:19:18;;;;;;;30.75;10.77;;;;;;;9.61;100.00;98802.81;5107470;28;20047;-74
2024/03/31 01:21:45;;;;;;;32.33;10.63;;;;;;;9.42;100.00;98768.88;5095621;27;20092;-73
2024/03/31 01:24:12;;;;;;;29.58;10.80;;;;;;;9.67;100.00;98810.31;5077648;27;20156;-77
2024/03/31 01:26:41;;;;;;;29.67;10.95;;;;;;;9.70;100.00;98811.91;5077930;27;20042;-74
2024/03/31 01:29:07;;;;;;;29.00;10.63;;;;;;;9.70;100.00;98817.19;5100219;27;20050;-75
2024/03/31 01:31:34;;;;;;;27.40;10.25;;;;;;;9.62;100.00;98803.66;5075553;27;20234;-74
2024/03/31 01:34:01;;;;;;;28.00;10.35;;;;;;;9.67;100.00;98817.41;5090376;27;20500;-75
2024/03/31 01:36:28;;;;;;;20.65;8.75;;;;;;;9.54;100.00;98806.81;5075479;27;20114;-74
2024/03/31 01:38:54;;;;;;;26.33;9.95;;;;;;;9.65;100.00;98824.59;5093261;27;20122;-74
2024/03/31 01:41:22;;;;;;;26.02;9.43;;;;;;;9.36;100.00;98774.56;5073957;27;20046;-76
2024/03/31 01:43:50;;;;;;;27.17;10.18;;;;;;;9.72;100.00;98820.59;5091348;27;20516;-73
2024/03/31 01:46:16;;;;;;;24.13;8.88;;;;;;;9.74;100.00;98821.34;5087648;27;20048;-73
2024/03/31 01:48:43;;;;;;;24.27;10.60;;;;;;;9.76;100.00;98822.91;5092995;27;20500;-74
2024/03/31 01:51:10;;;;;;;30.40;9.65;;;;;;;9.78;100.00;98825.44;5088317;27;20174;-74
2024/03/31 01:53:36;;;;;;;25.38;10.15;;;;;;;9.63;100.00;98800.06;5089118;27;20501;-74
2024/03/31 01:56:03;;;;;;;28.73;10.30;;;;;;;9.68;100.00;98829.66;5090627;27;20095;-74
2024/03/31 01:58:32;;;;;;;31.35;10.57;;;;;;;9.66;100.00;98831.56;5077154;28;20036;-73
2024/03/31 02:00:59;;;;;;;27.92;10.30;;;;;;;9.67;100.00;98835.91;5090968;28;20043;-76
2024/03/31 02:03:29;;;;;;;28.20;10.35;;;;;;;9.43;100.00;98798.78;5087859;27;20130;-75
2024/03/31 02:05:56;;;;;;;24.30;9.70;;;;;;;9.59;100.00;98827.66;5072731;28;20420;-73
2024/03/31 02:08:22;;;;;;;27.95;10.30;;;;;;;9.58;100.00;98825.97;5076200;28;20043;-73
2024/03/31 02:10:50;;;;;;;22.50;10.43;;;;;;;9.69;100.00;98845.44;5074619;28;20042;-74
2024/03/31 02:13:16;;;;;;;25.90;10.50;;;;;;;9.69;100.00;98848.06;5102188;28;20062;-74
2024/03/31 02:15:45;;;;;;;28.67;10.05;;;;;;;9.67;100.00;98849.13;5090227;28;20035;-74
2024/03/31 02:18:13;;;;;;;29.67;9.63;;;;;;;9.66;100.00;98844.78;5073037;28;20039;-76
2024/03/31 02:20:44;;;;;;;29.10;9.27;;;;;;;9.63;100.00;98847.63;5089466;28;20448;-75
2024/03/31 02:23:10;;;;;;;24.02;8.95;;;;;;;9.61;100.00;98846.88;5069655;28;20043;-75
2024/03/31 02:25:37;;;;;;;22.00;9.05;;;;;;;9.58;100.00;98845.31;5076229;28;20042;-74
2024/03/31 02:28:04;;;;;;;20.08;8.13;;;;;;;9.58;100.00;98852.41;5075310;27;20046;-74
2024/03/31 02:30:32;;;;;;;21.13;8.10;;;;;;;9.59;100.00;98847.00;5076691;27;20031;-73
2024/03/31 02:33:01;;;;;;;28.70;8.55;;;;;;;9.65;100.00;98848.38;5108238;27;20044;-73
2024/03/31 02:35:30;;;;;;;18.55;7.70;;;;;;;9.67;100.00;98852.63;5096630;27;20073;-73
2024/03/31 02:37:58;;;;;;;22.48;7.65;;;;;;;9.62;100.00;98844.13;5110145;27;20104;-72
2024/03/31 02:40:27;;;;;;;18.75;8.45;;;;;;;9.69;100.00;98852.50;5098449;27;20099;-72
2024/03/31 02:42:57;;;;;;;19.42;8.07;;;;;;;9.70;100.00;98855.06;5093377;27;20066;-73
2024/03/31 02:45:24;;;;;;;14.63;6.65;;;;;;;9.72;100.00;98852.31;5093860;27;20130;-73
2024/03/31 02:47:53;;;;;;;20.55;7.43;;;;;;;9.75;100.00;98852.09;5096586;27;20043;-72
2024/03/31 02:50:21;;;;;;;16.50;7.18;;;;;;;9.76;100.00;98853.78;5096558;27;20134;-71
2024/03/31 02:52:47;;;;;;;17.70;7.55;;;;;;;9.78;100.00;98846.59;5074402;27;20035;-73
2024/03/31 02:55:15;;;;;;;17.67;7.38;;;;;;;9.79;100.00;98838.56;5083354;27;20035;-72
2024/03/31 02:57:41;;;;;;;19.42;8.00;;;;;;;9.80;100.00;98840.25;5096100;27;20062;-72
2024/03/31 03:00:09;;;;;;;21.40;7.93;;;;;;;9.81;100.00;98841.09;5093565;27;20047;-72
2024/03/31 03:02:35;;;;;;;19.23;7.70;;;;;;;9.80;100.00;98842.88;5090489;27;20044;-75
2024/03/31 03:05:01;;;;;;;21.50;7.10;;;;;;;9.75;100.00;98831.81;5096439;27;20034;-72
2024/03/31 03:07:30;;;;;;;20.15;7.53;;;;;;;9.83;100.00;98842.69;5093831;27;20092;-72
2024/03/31 03:10:00;;;;;;;17.45;7.20;;;;;;;9.84;100.00;98846.19;5093950;27;20035;-71
2024/03/31 03:12:26;;;;;;;17.48;7.28;;;;;;;9.84;100.00;98851.47;5106250;27;20500;-71
2024/03/31 03:14:53;;;;;;;19.05;7.38;;;;;;;9.84;100.00;98838.25;5105958;27;20073;-71
2024/03/31 03:17:20;;;;;;;20.73;7.70;;;;;;;9.58;100.00;98800.41;5092313;27;20056;-72
2024/03/31 03:19:47;;;;;;;24.95;7.38;;;;;;;9.30;100.00;98753.84;5094997;27;20108;-71
2024/03/31 03:22:15;;;;;;;20.88;7.05;;;;;;;9.81;100.00;98833.16;5075865;27;20057;-71
2024/03/31 03:24:44;;;;;;;22.27;7.68;;;;;;;9.76;100.00;98827.34;5089846;27;20084;-71
2024/03/31 03:27:12;;;;;;;18.50;7.88;;;;;;;9.79;100.00;98825.34;5094052;27;20047;-72
2024/03/31 03:29:40;;;;;;;21.25;7.38;;;;;;;9.78;100.00;98821.00;5092119;27;20035;-71
2024/03/31 03:32:06;;;;;;;18.60;8.00;;;;;;;9.68;100.00;98803.25;5090539;27;20092;-72
2024/03/31 03:34:33;;;;;;;26.05;7.57;;;;;;;9.76;100.00;98816.75;5093470;27;20092;-71
2024/03/31 03:37:01;;;;;;;21.63;7.93;;;;;;;9.70;100.00;98807.47;5090808;27;20039;-71
2024/03/31 03:39:27;;;;;;;17.58;7.38;;;;;;;9.73;100.00;98815.19;5109867;27;20475;-71
2024/03/31 03:41:56;;;;;;;22.35;8.75;;;;;;;9.67;100.00;98807.69;5076643;27;20046;-71
2024/03/31 03:44:23;;;;;;;23.30;8.55;;;;;;;9.61;100.00;98807.25;5092546;27;20070;-70
2024/03/31 03:46:48;;;;;;;17.88;8.15;;;;;;;9.53;100.00;98807.78;5080925;27;20039;-71
2024/03/31 03:49:15;;;;;;;24.00;8.52;;;;;;;9.48;100.00;98792.22;5093376;27;20461;-71
2024/03/31 03:51:41;;;;;;;27.83;8.38;;;;;;;9.47;100.00;98779.13;5077578;27;20083;-72
2024/03/31 03:54:08;;;;;;;21.80;8.45;;;;;;;9.46;100.00;98780.91;5069015;27;20050;-72
2024/03/31 03:56:38;;;;;;;27.50;8.73;;;;;;;9.44;100.00;98787.28;5093651;27;20802;-72
2024/03/31 03:59:07;;;;;;;21.13;8.60;;;;;;;9.42;100.00;98786.53;5094791;27;20035;-72
2024/03/31 04:01:36;;;;;;;27.33;8.85;;;;;;;9.39;100.00;98797.31;5066166;27;20040;-73
2024/03/31 04:04:05;;;;;;;18.05;7.88;;;;;;;9.40;100.00;98801.63;5104757;27;20031;-73
2024/03/31 04:06:31;;;;;;;25.48;8.63;;;;;;;9.43;100.00;98804.06;5075470;27;20412;-73
2024/03/31 04:09:01;;;;;;;27.65;9.60;;;;;;;9.45;100.00;98803.00;5077329;27;20042;-72
2024/03/31 04:11:28;;;;;;;27.35;9.70;;;;;;;9.46;100.00;98795.91;5074209;27;20130;-72
2024/03/31 04:13:54;;;;;;;32.55;9.18;;;;;;;9.29;100.00;98767.16;5087436;27;20039;-71
2024/03/31 04:16:23;;;;;;;24.35;8.65;;;;;;;9.36;100.00;98764.00;5092522;27;20043;-71
2024/03/31 04:18:52;;;;;;;25.88;8.43;;;;;;;9.50;100.00;98785.03;5094218;27;20519;-72
2024/03/31 04:21:17;;;;;;;18.15;8.75;;;;;;;9.48;100.00;98784.31;5081695;27;20097;-72
2024/03/31 04:23:48;;;;;;;22.70;9.50;;;;;;;9.49;100.00;98785.16;5107998;27;20049;-71
2024/03/31 04:26:15;;;;;;;14.73;7.70;;;;;;;9.49;100.00;98788.63;5086634;27;20080;-72
2024/03/31 04:28:42;;;;;;;19.25;8.32;;;;;;;9.50;100.00;98784.19;5089666;27;20118;-71
2024/03/31 04:31:08;;;;;;;21.40;8.68;;;;;;;9.52;100.00;98799.94;5087787;27;20047;-71
2024/03/31 04:33:36;;;;;;;17.67;8.23;;;;;;;9.52;100.00;98779.66;5069928;27;20035;-72
2024/03/31 04:36:03;;;;;;;25.23;8.57;;;;;;;9.53;100.00;98784.00;5094982;27;20063;-74
2024/03/31 04:38:30;;;;;;;28.27;8.55;;;;;;;9.50;100.00;98778.91;5094785;27;20031;-73
2024/03/31 04:40:56;;;;;;;23.63;8.45;;;;;;;9.48;100.00;98776.38;5076106;27;20788;-72
2024/03/31 04:43:24;;;;;;;23.17;8.32;;;;;;;9.39;100.00;98761.16;5088475;27;20055;-73
2024/03/31 04:46:00;;;;;;;19.58;8.52;;;;;;;9.46;100.00;98772.13;5077354;27;20061;-73
2024/03/31 04:48:27;;;;;;;18.98;8.00;;;;;;;9.47;100.00;98773.84;5093309;27;20134;-74
2024/03/31 04:51:01;;;;;;;19.80;8.13;;;;;;;9.49;100.00;98783.34;5078370;28;20040;-73
2024/03/31 04:53:28;;;;;;;21.00;8.25;;;;;;;9.50;100.00;98790.34;5069778;27;20043;-73
2024/03/31 04:55:54;;;;;;;16.35;8.23;;;;;;;9.51;100.00;98791.19;5088796;28;20039;-73
2024/03/31 04:58:22;;;;;;;24.83;8.18;;;;;;;9.52;100.00;98786.75;5074341;27;20047;-74
2024/03/31 05:00:48;;;;;;;24.75;9.82;;;;;;;9.31;100.00;98758.19;5076157;27;20043;-74
2024/03/31 05:03:17;;;;;;;25.13;9.65;;;;;;;9.53;100.00;98780.50;5089296;27;20035;-74
2024/03/31 05:05:43;;;;;;;27.00;9.43;;;;;;;9.52;100.00;98781.44;5076197;27;20039;-74
2024/03/31 05:08:14;;;;;;;23.42;8.77;;;;;;;9.49;100.00;98780.72;5093627;27;20561;-74
2024/03/31 05:10:41;;;;;;;29.17;9.68;;;;;;;9.49;100.00;98779.84;5097763;27;20069;-74
2024/03/31 05:13:08;;;;;;;25.58;9.70;;;;;;;9.47;100.00;98776.47;5104739;27;20499;-74
2024/03/31 05:15:34;;;;;;;22.20;9.52;;;;;;;9.46;100.00;98770.34;5093189;27;20550;-74
2024/03/31 05:18:01;;;;;;;22.60;9.50;;;;;;;9.45;100.00;98771.28;5090603;27;20054;-74
2024/03/31 05:20:28;;;;;;;26.73;9.77;;;;;;;9.47;100.00;98772.03;5108391;27;20031;-73
2024/03/31 05:22:55;;;;;;;26.58;10.05;;;;;;;9.48;100.00;98776.38;5069452;27;20043;-73
2024/03/31 05:25:23;;;;;;;21.98;9.55;;;;;;;9.53;100.00;98768.13;5086493;27;20043;-74
2024/03/31 05:27:49;;;;;;;21.08;9.18;;;;;;;9.56;100.00;98767.09;5070521;27;20531;-75
2024/03/31 05:30:16;;;;;;;23.70;9.55;;;;;;;9.56;100.00;98761.81;5072507;27;20088;-72
2024/03/31 05:32:44;;;;;;;20.75;8.60;;;;;;;9.54;100.00;98761.06;5080267;27;20505;-73
2024/03/31 05:35:20;;;;;;;26.23;10.68;;;;;;;9.53;100.00;98754.94;5106323;27;20537;-73
2024/03/31 05:37:47;;;;;;;28.08;10.10;;;;;;;9.54;100.00;98761.91;5089703;27;20075;-74
2024/03/31 05:40:13;;;;;;;21.42;9.50;;;;;;;9.51;100.00;98759.47;5091145;27;20084;-74
2024/03/31 05:42:41;;;;;;;24.63;9.82;;;;;;;9.56;100.00;98767.09;5092080;27;20035;-73
2024/03/31 05:45:07;;;;;;;24.60;9.55;;;;;;;9.60;100.00;98768.56;5085886;27;20045;-74
2024/03/31 05:47:34;;;;;;;21.27;10.20;;;;;;;9.64;100.00;98772.69;5090226;28;20043;-72
2024/03/31 05:50:01;;;;;;;22.10;9.73;;;;;;;9.68;100.00;98768.88;5083995;28;20036;-72
2024/03/31 05:52:28;;;;;;;23.60;9.82;;;;;;;9.71;100.00;98769.53;5093538;27;20092;-71
2024/03/31 05:54:54;;;;;;;27.45;10.20;;;;;;;9.76;100.00;98766.53;5104683;28;20031;-72
2024/03/31 05:57:21;;;;;;;23.08;10.25;;;;;;;9.64;100.00;98738.31;5108159;27;20585;-72
2024/03/31 05:59:48;;;;;;;22.48;9.50;;;;;;;9.79;100.00;98763.69;5092568;28;20646;-73
2024/03/31 06:02:15;;;;;;;23.77;9.85;;;;;;;9.80;100.00;98762.75;5091585;27;20420;-72
2024/03/31 06:04:40;;;;;;;25.70;10.43;;;;;;;9.83;100.00;98755.44;5071621;28;20046;-72
2024/03/31 06:07:11;;;;;;;24.77;9.73;;;;;;;9.77;100.00;98729.44;5108827;28;20043;-73
2024/03/31 06:09:37;;;;;;;27.23;10.48;;;;;;;9.90;100.00;98750.59;5102384;28;20706;-73
2024/03/31 06:12:05;;;;;;;22.13;10.70;;;;;;;9.91;100.00;98757.56;5090672;28;20062;-73
2024/03/31 06:14:31;;;;;;;30.00;11.15;;;;;;;9.92;100.00;98758.38;5102380;28;20039;-73
2024/03/31 06:17:00;;;;;;;25.42;9.57;;;;;;;9.94;100.00;98757.31;5076626;28;20047;-71
2024/03/31 06:19:26;;;;;;;23.27;9.65;;;;;;;9.84;100.00;98737.78;5078296;28;20491;-71
2024/03/31 06:21:53;;;;;;;30.55;11.85;;;;;;;9.94;100.00;98757.31;5089912;28;20059;-72
2024/03/31 06:24:19;;;;;;;23.70;11.15;;;;;;;9.92;100.00;98750.44;5094682;28;20047;-72
2024/03/31 06:26:47;;;;;;;25.70;11.68;;;;;;;9.77;100.00;98736.50;5071563;28;20126;-72
2024/03/31 06:29:13;;;;;;;25.83;11.30;;;;;;;9.85;100.00;98747.41;5085907;28;20417;-72
2024/03/31 06:31:40;;;;;;;26.20;11.60;;;;;;;9.91;100.00;98746.16;5088678;28;20035;-72
2024/03/31 06:34:08;;;;;;;22.10;11.70;;;;;;;9.91;100.00;98738.22;5089045;28;20055;-72
2024/03/31 06:36:34;;;;;;;24.02;12.35;;;;;;;9.90;100.00;98742.66;5087857;28;20063;-72
2024/03/31 06:39:01;;;;;;;29.90;12.15;;;;;;;9.90;100.00;98742.66;5087473;28;20047;-73
2024/03/31 06:41:30;;;;;;;36.40;13.75;;;;;;;9.85;100.00;98734.19;5090554;28;20055;-73
2024/03/31 06:43:56;;;;;;;27.75;13.15;;;;;;;9.91;100.00;98740.84;5088425;28;20042;-73
2024/03/31 06:46:23;;;;;;;33.10;13.82;;;;;;;9.94;100.00;98735.31;5105706;28;20409;-73
2024/03/31 06:48:50;;;;;;;31.33;13.98;;;;;;;9.97;100.00;98728.03;5089730;28;20092;-72
2024/03/31 06:51:21;;;;;;;26.65;13.32;;;;;;;10.04;100.00;98726.66;5069963;28;20043;-72
2024/03/31 06:53:47;;;;;;;26.35;13.10;;;;;;;10.10;100.00;98736.78;5088679;28;20158;-72
2024/03/31 06:56:15;;;;;;;27.63;14.30;;;;;;;10.18;100.00;98728.31;5088133;28;20050;-72
2024/03/31 06:58:43;;;;;;;24.67;13.85;;;;;;;10.30;100.00;98727.44;5105201;27;20087;-72
2024/03/31 07:01:09;;;;;;;25.52;13.55;;;;;;;10.51;100.00;98733.00;5089987;28;20131;-72
2024/03/31 07:03:36;;;;;;;28.05;13.63;;;;;;;10.67;100.00;98730.06;5105457;28;20050;-72
2024/03/31 07:06:03;;;;;;;24.30;12.27;;;;;;;10.90;100.00;98732.69;5084995;28;20095;-72
2024/03/31 07:08:30;;;;;;;25.88;11.48;;;;;;;11.05;100.00;98735.16;5088218;28;20712;-72
2024/03/31 07:10:58;;;;;;;21.40;10.68;;;;;;;11.08;100.00;98740.22;5082212;28;20510;-73
2024/03/31 07:13:24;;;;;;;27.77;11.27;;;;;;;11.10;100.00;98746.25;5082835;28;20500;-72
2024/03/31 07:15:51;;;;;;;32.13;11.50;;;;;;;11.01;100.00;98741.66;5085497;27;20127;-72
2024/03/31 07:18:18;;;;;;;28.05;11.88;;;;;;;10.94;100.00;98729.81;5077929;27;20126;-73
2024/03/31 07:20:45;;;;;;;31.30;11.15;;;;;;;10.92;100.00;98729.09;5094183;27;20043;-72
2024/03/31 07:23:11;;;;;;;27.40;11.00;;;;;;;11.02;100.00;98730.09;5092280;27;20042;-72
2024/03/31 07:25:39;;;;;;;29.70;12.43;;;;;;;11.14;100.00;98718.56;5103462;27;20039;-71
2024/03/31 07:28:05;;;;;;;32.90;12.93;;;;;;;11.40;100.00;98709.47;5093463;27;20058;-71
2024/03/31 07:30:36;;;;;;;25.45;12.57;;;;;;;11.55;100.00;98700.31;5089853;27;20028;-72
2024/03/31 07:33:03;;;;;;;24.50;10.98;;;;;;;11.62;100.00;98707.81;5066048;28;20118;-73
2024/03/31 07:35:30;;;;;;;20.70;10.60;;;;;;;11.41;100.00;98694.41;5092627;27;20035;-71
2024/03/31 07:37:56;;;;;;;22.00;9.65;;;;;;;11.03;100.00;98671.69;5110877;27;20066;-72
2024/03/31 07:40:23;;;;;;;19.80;8.95;;;;;;;11.16;100.00;98716.66;5094531;27;20051;-73
2024/03/31 07:42:50;;;;;;;21.83;9.63;;;;;;;11.14;100.00;98705.31;5088286;27;20075;-73
2024/03/31 07:45:17;;;;;;;29.05;9.52;;;;;;;11.05;100.00;98700.72;5087672;27;20159;-72
2024/03/31 07:47:43;;;;;;;24.02;10.05;;;;;;;10.97;100.00;98687.22;5094158;27;20043;-73
2024/03/31 07:50:10;;;;;;;21.92;9.27;;;;;;;10.83;100.00;98667.91;5109478;27;20395;-73
2024/03/31 07:52:38;;;;;;;23.02;10.63;;;;;;;11.02;100.00;98675.28;5101208;27;20289;-73
2024/03/31 07:55:05;;;;;;;28.00;11.95;;;;;;;11.21;100.00;98678.22;5090973;27;20497;-72
2024/03/31 07:57:30;;;;;;;20.23;10.57;;;;;;;11.05;100.00;98645.09;5112114;27;20118;-72
2024/03/31 07:59:58;;;;;;;23.77;10.40;;;;;;;11.31;100.00;98669.59;5114860;27;20043;-72
2024/03/31 08:02:24;;;;;;;25.88;9.88;;;;;;;11.00;100.00;98604.88;5075827;27;20073;-72
2024/03/31 08:04:51;;;;;;;22.08;9.50;;;;;;;11.61;100.00;98661.91;5089307;27;20050;-73
2024/03/31 08:07:17;;;;;;;24.65;9.48;;;;;;;11.90;100.00;98654.31;5110199;27;20126;-73
2024/03/31 08:09:45;;;;;;;21.42;7.93;;;;;;;11.96;100.00;98653.84;5108863;27;20057;-73
2024/03/31 08:12:11;;;;;;;18.85;7.65;;;;;;;11.90;100.00;98651.66;5107602;27;20134;-75
2024/03/31 08:14:38;;;;;;;17.75;6.93;;;;;;;11.88;100.00;98637.69;5087464;27;20491;-72
2024/03/31 08:17:05;;;;;;;17.65;6.78;;;;;;;11.96;100.00;98637.94;5093326;27;20074;-74
2024/03/31 08:19:32;;;;;;;20.42;6.50;;;;;;;11.75;100.00;98610.44;5107076;27;20039;-72
2024/03/31 08:21:58;;;;;;;24.30;6.72;;;;;;;12.09;100.00;98643.91;5095190;27;20066;-74
2024/03/31 08:24:27;;;;;;;18.88;6.50;;;;;;;12.30;100.00;98647.47;5107604;27;20158;-73
2024/03/31 08:26:53;;;;;;;16.58;6.03;;;;;;;12.43;100.00;98649.13;5124714;27;20058;-73
2024/03/31 08:29:20;;;;;;;17.70;6.30;;;;;;;12.54;100.00;98641.13;5091104;27;20047;-73
2024/03/31 08:31:46;;;;;;;16.17;5.05;;;;;;;12.70;100.00;98633.56;5109448;27;20473;-72
2024/03/31 08:34:14;;;;;;;19.25;5.30;;;;;;;12.88;100.00;98636.50;5090281;27;20047;-72
2024/03/31 08:36:40;;;;;;;16.95;4.18;;;;;;;12.99;100.00;98639.09;5095083;27;20059;-72
2024/03/31 08:39:09;;;;;;;16.70;5.00;;;;;;;12.88;100.00;98628.53;5090875;27;20108;-73
2024/03/31 08:41:42;;;;;;;13.77;4.63;;;;;;;13.00;100.00;98630.97;5110475;27;20068;-73
2024/03/31 08:44:15;;;;;;;18.77;5.70;;;;;;;12.13;100.00;98429.56;5100707;27;20067;-73
2024/03/31 08:46:41;;;;;;;17.30;5.03;;;;;;;13.43;100.00;98605.22;5107841;27;20110;-73
2024/03/31 08:49:10;;;;;;;22.63;5.28;;;;;;;13.39;100.00;98601.13;5070785;27;20078;-72
2024/03/31 08:51:38;;;;;;;13.73;4.60;;;;;;;13.15;100.00;98606.75;5101418;27;20063;-73
2024/03/31 08:54:07;;;;;;;19.83;4.97;;;;;;;13.11;100.00;98627.41;5104583;27;20059;-74
2024/03/31 08:56:32;;;;;;;14.68;3.72;;;;;;;13.05;100.00;98632.41;5089920;27;20598;-72
2024/03/31 08:59:01;;;;;;;13.93;3.53;;;;;;;12.93;100.00;98637.78;5096171;27;20043;-73
2024/03/31 09:01:28;;;;;;;16.08;4.28;;;;;;;12.95;100.00;98653.59;5093009;27;20070;-73
2024/03/31 09:03:56;;;;;;;13.93;3.55;;;;;;;12.98;100.00;98648.88;5093813;27;20130;-72
2024/03/31 09:06:23;;;;;;;14.10;3.80;;;;;;;12.97;100.00;98641.88;5064047;27;20067;-72
2024/03/31 09:08:57;;;;;;;14.15;3.60;;;;;;;13.27;100.00;98642.91;5090392;27;20063;-73
2024/03/31 09:11:23;;;;;;;19.95;4.03;;;;;;;13.49;100.00;98648.06;5093660;27;20073;-73
2024/03/31 09:13:50;;;;;;;23.30;3.80;;;;;;;13.73;100.00;98634.44;5069140;27;20059;-72
2024/03/31 09:16:21;;;;;;;9.07;3.10;;;;;;;13.92;100.00;98639.00;5090414;27;20039;-73
2024/03/31 09:18:48;;;;;;;19.48;3.42;;;;;;;14.03;100.00;98639.72;5105415;27;20069;-74
2024/03/31 09:21:14;;;;;;;19.10;3.72;;;;;;;14.22;100.00;98628.28;5088203;27;20067;-73
2024/03/31 09:23:41;;;;;;;15.75;3.60;;;;;;;14.24;100.00;98613.00;5092557;27;20074;-73
2024/03/31 09:26:10;;;;;;;16.95;3.92;;;;;;;14.45;100.00;98628.91;5082332;27;20071;-72
2024/03/31 09:28:37;;;;;;;14.43;3.53;;;;;;;14.23;100.00;98598.00;5090170;27;20548;-74
2024/03/31 09:31:03;;;;;;;23.15;4.40;;;;;;;14.53;100.00;98631.69;5110337;27;20078;-74
2024/03/31 09:33:32;;;;;;;11.85;2.92;;;;;;;14.49;100.00;98637.44;5108408;27;20131;-75
2024/03/31 09:35:58;;;;;;;16.70;3.42;;;;;;;14.54;100.00;98640.53;5038562;27;20073;-75
2024/03/31 09:38:25;;;;;;;15.98;3.40;;;;;;;14.59;100.00;98632.97;5088254;27;20085;-73
2024/03/31 09:40:51;;;;;;;14.07;3.15;;;;;;;14.73;100.00;98629.88;5107113;27;20122;-75
2024/03/31 09:43:21;;;;;;;18.55;3.72;;;;;;;14.77;100.00;98604.66;5073612;27;20061;-75
2024/03/31 09:45:47;;;;;;;10.80;3.33;;;;;;;14.74;100.00;98597.78;5086341;27;20146;-74
2024/03/31 09:48:19;;;;;;;13.85;2.80;;;;;;;15.02;100.00;98620.03;5109407;27;20066;-74
2024/03/31 09:50:53;;;;;;;12.43;2.45;;;;;;;14.80;100.00;98575.03;5084716;27;20074;-74
2024/03/31 09:53:25;;;;;;;16.73;3.42;;;;;;;15.06;100.00;98625.91;5079530;28;20062;-76
2024/03/31 09:55:56;;;;;;;22.00;3.70;;;;;;;15.05;100.00;98630.41;5098493;27;20055;-74
2024/03/31 09:58:28;;;;;;;11.35;2.97;;;;;;;15.09;100.00;98630.97;5074953;28;20079;-74
2024/03/31 10:00:54;;;;;;;18.27;2.92;;;;;;;14.96;100.00;98601.94;5094451;27;20151;-76
2024/03/31 10:03:27;;;;;;;14.20;2.95;;;;;;;15.33;100.00;98627.81;5091599;28;20139;-75
2024/03/31 10:05:54;;;;;;;21.23;3.35;;;;;;;15.66;100.00;98626.47;5084050;27;20122;-74
2024/03/31 10:08:26;;;;;;;14.02;3.47;;;;;;;15.45;100.00;98551.94;5088312;28;20039;-74
2024/03/31 10:10:53;;;;;;;11.52;2.45;;;;;;;15.98;100.00;98588.66;5089457;28;20092;-75
2024/03/31 10:13:22;;;;;;;15.02;2.22;;;;;;;16.31;100.00;98621.88;5107393;28;20736;-75
2024/03/31 10:15:50;;;;;;;12.80;2.33;;;;;;;16.32;100.00;98615.56;5105125;28;20126;-74
2024/03/31 10:18:19;;;;;;;12.52;2.38;;;;;;;16.34;100.00;98613.59;5104568;28;20043;-75
2024/03/31 10:20:48;;;;;;;12.52;2.90;;;;;;;16.26;100.00;98600.97;5103702;28;20071;-73
2024/03/31 10:23:17;;;;;;;14.75;2.40;;;;;;;16.22;100.00;98594.25;5087999;28;20077;-75
2024/03/31 10:25:44;;;;;;;12.77;2.13;;;;;;;16.06;100.00;98578.03;5088107;28;20071;-73
2024/03/31 10:28:13;;;;;;;18.17;2.75;;;;;;;15.95;100.00;98564.91;5110979;28;20066;-76
2024/03/31 10:30:40;;;;;;;12.63;2.33;;;;;;;15.93;100.00;98588.25;5094389;28;20066;-75
2024/03/31 10:33:09;;;;;;;12.10;2.10;;;;;;;15.79;100.00;98586.94;5077242;28;20062;-79
2024/03/31 10:35:36;;;;;;;12.95;2.53;;;;;;;15.54;100.00;98553.75;5089070;28;20114;-76
2024/03/31 10:38:04;;;;;;;16.00;2.65;;;;;;;15.57;100.00;98574.00;5108243;27;20154;-73
2024/03/31 10:40:32;;;;;;;12.70;2.08;;;;;;;15.56;100.00;98573.16;5103667;28;20071;-74
2024/03/31 10:43:03;;;;;;;16.02;2.17;;;;;;;15.56;100.00;98564.31;5108922;28;20039;-78
2024/03/31 10:45:30;;;;;;;14.05;1.90;;;;;;;15.66;100.00;98563.25;5091521;28;20035;-75
2024/03/31 10:47:58;;;;;;;13.98;2.20;;;;;;;15.62;100.00;98537.88;5071990;28;20089;-74
2024/03/31 10:50:25;;;;;;;17.50;2.05;;;;;;;15.99;100.00;98567.16;5093460;28;20576;-74
2024/03/31 10:52:53;;;;;;;16.73;2.38;;;;;;;16.15;100.00;98577.16;5088734;28;20063;-75
2024/03/31 10:55:20;;;;;;;14.55;2.03;;;;;;;16.17;100.00;98563.66;5076027;27;20122;-76
2024/03/31 10:57:58;;;;;;;10.90;1.65;;;;;;;16.04;100.00;98518.66;5113573;27;20035;-75
2024/03/31 11:00:25;;;;;;;16.75;2.20;;;;;;;16.34;100.00;98542.28;5106442;27;20077;-75
2024/03/31 11:02:53;;;;;;;17.02;2.17;;;;;;;16.39;100.00;98517.78;5070432;27;20046;-75
2024/03/31 11:05:20;;;;;;;13.82;1.95;;;;;;;15.86;100.00;98419.88;5110690;27;20123;-75
2024/03/31 11:07:53;;;;;;;10.95;1.70;;;;;;;16.34;100.00;98518.25;5095179;27;20039;-75
2024/03/31 11:10:19;;;;;;;14.23;2.15;;;;;;;16.07;100.00;98455.06;5096958;27;20461;-72
2024/03/31 11:12:50;;;;;;;11.68;1.67;;;;;;;16.35;100.00;98519.09;5109308;27;20050;-74
2024/03/31 11:15:16;;;;;;;10.55;2.28;;;;;;;16.17;100.00;98513.75;5110853;27;20035;-74
2024/03/31 11:17:44;;;;;;;13.60;2.65;;;;;;;16.06;100.00;98541.50;5095212;27;20059;-73
2024/03/31 11:20:12;;;;;;;12.63;2.40;;;;;;;16.04;100.00;98543.53;5114912;27;20075;-75